Rheintal — V2MA5 — position and weather

sailwx.info

Track history (hours):
 
Tides and Currents Weather Stations Pressure Air Temp Water Temp Dewpoint Dewpoint Depression Visibility Wind Speed Wind Dir Waves Ship Positions

Rheintal

Last reported at 2018-Jul-20 08:59 UTC. Time now 2018-Jul-21 13:50 UTC.
Position N 32°43' E 014°18'.

Length 101 m; draft 6.4 m.

Type: Cargo ship. MMSI: 304285000.

Date/timePositionNaut miles runAvg speedWind from/ knotsBaromVisibWave heightAir tempDewpointWater temp
2018-Jul-20 08:59N 32°43' E 014°18'0 0.1
2018-Jul-20 07:25N 32°43' E 014°18'0 0.0
2018-Jul-20 02:58N 32°43' E 014°18'0 0.0
2018-Jul-20 02:25N 32°43' E 014°18'0 0.0
2018-Jul-19 16:16N 32°43' E 014°18'  
2018-Jul-17 02:41N 37°15' E 023°52'311.6
2018-Jul-17 02:28N 37°17' E 023°53'1811.3
2018-Jul-17 00:51N 37°32' E 024°06'411.1
2018-Jul-17 00:30N 37°36' E 024°08'  
2018-Jul-14 18:32N 42°24' E 031°21'211.1
2018-Jul-14 18:23N 42°25' E 031°23'1911.1
2018-Jul-14 16:42N 42°36' E 031°44'3111.3
2018-Jul-14 13:58N 42°53' E 032°20'711.4
2018-Jul-14 13:23N 42°56' E 032°27'22710.7
2018-Jul-13 16:10N 45°19' E 036°33'2 9.7
2018-Jul-13 15:59N 45°20' E 036°35'4 8.9
2018-Jul-13 15:30N 45°23' E 036°40'4 7.4
2018-Jul-13 15:00N 45°26' E 036°41'3 2.7
2018-Jul-13 13:55N 45°28' E 036°38'0 0.0
2018-Jul-13 13:28N 45°28' E 036°38'0 0.0
2018-Jul-13 12:55N 45°28' E 036°38'0 0.0
2018-Jul-13 07:22N 45°28' E 036°38'0 0.2
2018-Jul-13 06:52N 45°28' E 036°38'1 2.9
2018-Jul-13 06:30N 45°29' E 036°39'  
2018-Jul-10 15:20N 45°22' E 036°40'2 6.1
2018-Jul-10 15:00N 45°21' E 036°38'  
Track history (hours):
 
Tides and Currents Weather Stations Pressure Air Temp Water Temp Dewpoint Dewpoint Depression Visibility Wind Speed Wind Dir Waves Ship Positions

Rheintal

Last reported at 2018-Jul-20 08:59 UTC. Time now 2018-Jul-21 13:50 UTC.
Position N 32°43' E 014°18'.

Length 101 m; draft 6.4 m.

Type: Cargo ship. MMSI: 304285000.

Date/timePositionNaut miles runAvg speedWind from/ knotsBaromVisibWave heightAir tempDewpointWater temp
2018-Jul-20 08:59N 32°43' E 014°18'0 0.1
2018-Jul-20 07:25N 32°43' E 014°18'0 0.0
2018-Jul-20 02:58N 32°43' E 014°18'0 0.0
2018-Jul-20 02:25N 32°43' E 014°18'0 0.0
2018-Jul-19 16:16N 32°43' E 014°18'  
2018-Jul-17 02:41N 37°15' E 023°52'311.6
2018-Jul-17 02:28N 37°17' E 023°53'1811.3
2018-Jul-17 00:51N 37°32' E 024°06'411.1
2018-Jul-17 00:30N 37°36' E 024°08'  
2018-Jul-14 18:32N 42°24' E 031°21'211.1
2018-Jul-14 18:23N 42°25' E 031°23'1911.1
2018-Jul-14 16:42N 42°36' E 031°44'3111.3
2018-Jul-14 13:58N 42°53' E 032°20'711.4
2018-Jul-14 13:23N 42°56' E 032°27'22710.7
2018-Jul-13 16:10N 45°19' E 036°33'2 9.7
2018-Jul-13 15:59N 45°20' E 036°35'4 8.9
2018-Jul-13 15:30N 45°23' E 036°40'4 7.4
2018-Jul-13 15:00N 45°26' E 036°41'3 2.7
2018-Jul-13 13:55N 45°28' E 036°38'0 0.0
2018-Jul-13 13:28N 45°28' E 036°38'0 0.0
2018-Jul-13 12:55N 45°28' E 036°38'0 0.0
2018-Jul-13 07:22N 45°28' E 036°38'0 0.2
2018-Jul-13 06:52N 45°28' E 036°38'1 2.9
2018-Jul-13 06:30N 45°29' E 036°39'  
2018-Jul-10 15:20N 45°22' E 036°40'2 6.1
2018-Jul-10 15:00N 45°21' E 036°38'  

Dump ship's entire track history